Index of /people/hnn/n/images/2007/Winston_Cones

[ICO]NameLast modifiedSizeDescription

[DIR]Parent Directory  -
[IMG]The pair ruled_11.jpg30-Oct-2007 16:34 1.2M
[DIR]originals/10-Jan-2008 15:54 -
[IMG]silver1.jpg30-Oct-2007 16:34 772K
[IMG]silver2.jpg30-Oct-2007 16:34 752K
[IMG]silver3.jpg30-Oct-2007 16:34 764K
[IMG]silver_ruled_1.jpg21-Sep-2007 03:30 741K
[IMG]silver_ruled_2.jpg21-Sep-2007 03:33 777K
[IMG]silver_ruled_3.jpg30-Oct-2007 16:34 748K
[IMG]silver_ruled_4.jpg30-Oct-2007 16:34 772K
[IMG]silver_ruled_5.jpg30-Oct-2007 16:34 773K
[IMG]silver_ruled_6.jpg30-Oct-2007 16:34 764K
[IMG]silver_ruled_7.jpg30-Oct-2007 16:34 761K
[IMG]silver_ruled_8.jpg30-Oct-2007 16:34 755K
[IMG]the_pair_ruled_1.jpg21-Sep-2007 03:27 761K
[IMG]the_pair_ruled_2.jpg21-Sep-2007 03:28 742K
[IMG]the_pair_ruled_3.jpg21-Sep-2007 03:29 782K
[IMG]the_pair_ruled_4.jpg30-Oct-2007 16:34 777K
[IMG]the_pair_ruled_5.jpg30-Oct-2007 16:34 766K
[IMG]the_pair_ruled_7.jpg30-Oct-2007 16:34 1.2M
[IMG]the_pair_ruled_8.jpg30-Oct-2007 16:34 1.2M
[IMG]the_pair_ruled_9.jpg30-Oct-2007 16:34 1.2M
[IMG]the_pair_ruled_10.jpg30-Oct-2007 16:34 1.2M
[IMG]the pair_ruled_6.jpg30-Oct-2007 16:34 767K

Apache/2.2.3 (Scientific Linux) Server at hep.ucsb.edu Port 80